sensor_id;sensor_type;location;lat;lon;timestamp;temperature;humidity
19892;DHT22;10108;50.142;8.724;2022-12-29T00:01:47;10.20;99.90
19892;DHT22;10108;50.142;8.724;2022-12-29T00:04:14;10.20;99.90
19892;DHT22;10108;50.142;8.724;2022-12-29T00:06:42;10.20;99.90
19892;DHT22;10108;50.142;8.724;2022-12-29T00:09:10;10.20;99.90
19892;DHT22;10108;50.142;8.724;2022-12-29T00:11:36;10.30;99.90
19892;DHT22;10108;50.142;8.724;2022-12-29T00:14:02;10.30;99.90
19892;DHT22;10108;50.142;8.724;2022-12-29T00:16:47;10.30;99.90
19892;DHT22;10108;50.142;8.724;2022-12-29T00:19:13;10.30;99.90
19892;DHT22;10108;50.142;8.724;2022-12-29T00:21:58;10.30;99.90
19892;DHT22;10108;50.142;8.724;2022-12-29T00:24:44;10.30;99.90
19892;DHT22;10108;50.142;8.724;2022-12-29T00:27:19;10.30;99.90
19892;DHT22;10108;50.142;8.724;2022-12-29T00:30:12;10.40;99.90
19892;DHT22;10108;50.142;8.724;2022-12-29T00:32:57;10.20;99.90
19892;DHT22;10108;50.142;8.724;2022-12-29T00:35:50;10.20;99.90
19892;DHT22;10108;50.142;8.724;2022-12-29T00:38:16;10.10;99.90
19892;DHT22;10108;50.142;8.724;2022-12-29T00:41:01;10.10;99.90
19892;DHT22;10108;50.142;8.724;2022-12-29T00:43:45;10.00;99.90
19892;DHT22;10108;50.142;8.724;2022-12-29T00:46:35;10.00;99.90
19892;DHT22;10108;50.142;8.724;2022-12-29T00:49:01;10.00;99.90
19892;DHT22;10108;50.142;8.724;2022-12-29T00:51:47;10.00;99.90
19892;DHT22;10108;50.142;8.724;2022-12-29T00:54:14;10.00;99.90
19892;DHT22;10108;50.142;8.724;2022-12-29T00:56:40;10.10;99.90
19892;DHT22;10108;50.142;8.724;2022-12-29T00:59:09;10.10;99.90
19892;DHT22;10108;50.142;8.724;2022-12-29T01:01:37;10.00;99.90
19892;DHT22;10108;50.142;8.724;2022-12-29T01:04:04;10.00;99.90
19892;DHT22;10108;50.142;8.724;2022-12-29T01:06:31;10.00;99.90
19892;DHT22;10108;50.142;8.724;2022-12-29T01:08:57;10.00;99.90
19892;DHT22;10108;50.142;8.724;2022-12-29T01:11:42;9.90;1.00
19892;DHT22;10108;50.142;8.724;2022-12-29T01:14:08;9.90;1.00
19892;DHT22;10108;50.142;8.724;2022-12-29T01:16:34;9.90;1.00
19892;DHT22;10108;50.142;8.724;2022-12-29T01:19:03;9.90;53.50
19892;DHT22;10108;50.142;8.724;2022-12-29T01:21:29;9.90;99.90
19892;DHT22;10108;50.142;8.724;2022-12-29T01:23:55;9.90;99.90
19892;DHT22;10108;50.142;8.724;2022-12-29T01:26:21;9.90;99.90
19892;DHT22;10108;50.142;8.724;2022-12-29T01:28:47;9.90;99.90
19892;DHT22;10108;50.142;8.724;2022-12-29T01:31:14;9.90;99.90
19892;DHT22;10108;50.142;8.724;2022-12-29T01:33:42;9.90;99.90
19892;DHT22;10108;50.142;8.724;2022-12-29T01:36:10;10.00;99.90
19892;DHT22;10108;50.142;8.724;2022-12-29T01:38:37;10.00;99.90
19892;DHT22;10108;50.142;8.724;2022-12-29T01:41:06;10.10;99.90
19892;DHT22;10108;50.142;8.724;2022-12-29T01:43:49;10.10;99.90
19892;DHT22;10108;50.142;8.724;2022-12-29T01:51:40;10.20;99.90
19892;DHT22;10108;50.142;8.724;2022-12-29T01:54:12;10.30;99.90
19892;DHT22;10108;50.142;8.724;2022-12-29T01:56:39;10.20;99.90
19892;DHT22;10108;50.142;8.724;2022-12-29T01:59:10;10.20;10.00
19892;DHT22;10108;50.142;8.724;2022-12-29T02:01:38;10.20;99.90
19892;DHT22;10108;50.142;8.724;2022-12-29T02:04:05;10.30;99.90
19892;DHT22;10108;50.142;8.724;2022-12-29T02:06:42;10.20;99.90
19892;DHT22;10108;50.142;8.724;2022-12-29T02:30:02;10.50;1.00
19892;DHT22;10108;50.142;8.724;2022-12-29T02:32:56;10.50;99.90
19892;DHT22;10108;50.142;8.724;2022-12-29T02:38:36;10.50;92.80
19892;DHT22;10108;50.142;8.724;2022-12-29T02:41:08;10.50;54.40
19892;DHT22;10108;50.142;8.724;2022-12-29T02:43:48;10.60;55.40
19892;DHT22;10108;50.142;8.724;2022-12-29T02:46:28;10.60;99.90
19892;DHT22;10108;50.142;8.724;2022-12-29T02:49:10;10.60;65.80
19892;DHT22;10108;50.142;8.724;2022-12-29T02:54:10;10.50;79.30
19892;DHT22;10108;50.142;8.724;2022-12-29T02:56:54;10.50;99.90
19892;DHT22;10108;50.142;8.724;2022-12-29T02:59:21;10.50;92.00
19892;DHT22;10108;50.142;8.724;2022-12-29T03:02:20;10.50;72.70
19892;DHT22;10108;50.142;8.724;2022-12-29T03:08:02;10.60;45.10
19892;DHT22;10108;50.142;8.724;2022-12-29T03:11:07;10.50;77.50
19892;DHT22;10108;50.142;8.724;2022-12-29T03:14:17;10.60;99.90
19892;DHT22;10108;50.142;8.724;2022-12-29T03:17:04;10.60;63.20
19892;DHT22;10108;50.142;8.724;2022-12-29T03:19:36;10.60;99.90
19892;DHT22;10108;50.142;8.724;2022-12-29T03:22:09;10.60;89.50
19892;DHT22;10108;50.142;8.724;2022-12-29T03:25:17;10.60;96.50
19892;DHT22;10108;50.142;8.724;2022-12-29T03:27:50;10.60;94.70
19892;DHT22;10108;50.142;8.724;2022-12-29T03:30:19;10.60;1.00
19892;DHT22;10108;50.142;8.724;2022-12-29T03:32:55;10.70;69.10
19892;DHT22;10108;50.142;8.724;2022-12-29T03:35:28;10.60;99.90
19892;DHT22;10108;50.142;8.724;2022-12-29T03:40:33;10.70;99.90
19892;DHT22;10108;50.142;8.724;2022-12-29T03:43:02;10.70;99.90
19892;DHT22;10108;50.142;8.724;2022-12-29T03:45:30;10.60;99.90
19892;DHT22;10108;50.142;8.724;2022-12-29T03:47:57;10.70;1.00
19892;DHT22;10108;50.142;8.724;2022-12-29T03:50:23;10.60;62.70
19892;DHT22;10108;50.142;8.724;2022-12-29T03:52:49;10.70;75.90
19892;DHT22;10108;50.142;8.724;2022-12-29T03:55:15;10.70;65.20
19892;DHT22;10108;50.142;8.724;2022-12-29T03:57:42;10.80;1.00
19892;DHT22;10108;50.142;8.724;2022-12-29T04:00:12;10.80;1.00
19892;DHT22;10108;50.142;8.724;2022-12-29T04:02:41;10.80;1.00
19892;DHT22;10108;50.142;8.724;2022-12-29T04:05:11;10.80;1.00
19892;DHT22;10108;50.142;8.724;2022-12-29T04:07:37;10.80;1.00
19892;DHT22;10108;50.142;8.724;2022-12-29T04:10:04;10.90;1.00
19892;DHT22;10108;50.142;8.724;2022-12-29T04:12:34;10.90;54.50
19892;DHT22;10108;50.142;8.724;2022-12-29T04:15:00;10.90;37.50
19892;DHT22;10108;50.142;8.724;2022-12-29T04:17:26;10.90;99.90
19892;DHT22;10108;50.142;8.724;2022-12-29T04:19:53;10.80;12.10
19892;DHT22;10108;50.142;8.724;2022-12-29T04:22:39;10.80;1.00
19892;DHT22;10108;50.142;8.724;2022-12-29T04:25:06;10.90;35.50
19892;DHT22;10108;50.142;8.724;2022-12-29T04:27:33;10.90;1.00
19892;DHT22;10108;50.142;8.724;2022-12-29T04:30:22;10.90;1.00
19892;DHT22;10108;50.142;8.724;2022-12-29T04:32:59;10.90;1.00
19892;DHT22;10108;50.142;8.724;2022-12-29T04:35:25;11.00;54.70
19892;DHT22;10108;50.142;8.724;2022-12-29T04:37:52;11.00;1.00
19892;DHT22;10108;50.142;8.724;2022-12-29T04:40:18;11.00;1.00
19892;DHT22;10108;50.142;8.724;2022-12-29T04:42:45;11.00;69.30
19892;DHT22;10108;50.142;8.724;2022-12-29T04:45:11;11.00;14.00
19892;DHT22;10108;50.142;8.724;2022-12-29T04:47:56;11.00;99.90
19892;DHT22;10108;50.142;8.724;2022-12-29T04:50:32;11.10;34.80
19892;DHT22;10108;50.142;8.724;2022-12-29T04:53:12;11.10;1.00
19892;DHT22;10108;50.142;8.724;2022-12-29T04:55:38;11.10;1.00
19892;DHT22;10108;50.142;8.724;2022-12-29T04:58:04;11.10;16.00
19892;DHT22;10108;50.142;8.724;2022-12-29T05:00:32;11.10;1.00
19892;DHT22;10108;50.142;8.724;2022-12-29T05:02:59;11.10;77.10
19892;DHT22;10108;50.142;8.724;2022-12-29T05:05:25;11.10;62.60
19892;DHT22;10108;50.142;8.724;2022-12-29T05:07:51;11.10;57.80
19892;DHT22;10108;50.142;8.724;2022-12-29T05:10:17;11.00;99.90
19892;DHT22;10108;50.142;8.724;2022-12-29T05:12:44;11.00;1.00
19892;DHT22;10108;50.142;8.724;2022-12-29T05:15:12;11.10;59.80
19892;DHT22;10108;50.142;8.724;2022-12-29T05:17:38;11.10;99.90
19892;DHT22;10108;50.142;8.724;2022-12-29T05:20:06;11.10;1.00
19892;DHT22;10108;50.142;8.724;2022-12-29T05:22:33;11.00;1.00
19892;DHT22;10108;50.142;8.724;2022-12-29T05:24:59;11.00;99.90
19892;DHT22;10108;50.142;8.724;2022-12-29T05:27:26;11.10;1.00
19892;DHT22;10108;50.142;8.724;2022-12-29T05:30:21;11.10;66.80
19892;DHT22;10108;50.142;8.724;2022-12-29T05:32:48;11.00;1.00
19892;DHT22;10108;50.142;8.724;2022-12-29T05:35:14;11.00;99.90
19892;DHT22;10108;50.142;8.724;2022-12-29T05:37:40;11.00;99.90
19892;DHT22;10108;50.142;8.724;2022-12-29T05:40:07;10.90;99.90
19892;DHT22;10108;50.142;8.724;2022-12-29T05:42:34;11.00;99.90
19892;DHT22;10108;50.142;8.724;2022-12-29T05:45:32;11.00;99.90
19892;DHT22;10108;50.142;8.724;2022-12-29T05:48:16;11.00;28.60
19892;DHT22;10108;50.142;8.724;2022-12-29T05:51:03;11.00;99.90
19892;DHT22;10108;50.142;8.724;2022-12-29T05:53:40;11.10;99.90
19892;DHT22;10108;50.142;8.724;2022-12-29T05:56:06;11.00;99.90
19892;DHT22;10108;50.142;8.724;2022-12-29T05:58:33;11.00;99.90
19892;DHT22;10108;50.142;8.724;2022-12-29T06:00:59;11.10;1.00
19892;DHT22;10108;50.142;8.724;2022-12-29T06:03:26;11.10;5.00
19892;DHT22;10108;50.142;8.724;2022-12-29T06:05:53;11.10;25.00
19892;DHT22;10108;50.142;8.724;2022-12-29T06:08:19;11.00;63.70
19892;DHT22;10108;50.142;8.724;2022-12-29T06:10:47;11.00;22.90
19892;DHT22;10108;50.142;8.724;2022-12-29T06:13:13;11.10;99.90
19892;DHT22;10108;50.142;8.724;2022-12-29T06:15:42;11.10;1.00
19892;DHT22;10108;50.142;8.724;2022-12-29T06:18:08;11.10;1.00
19892;DHT22;10108;50.142;8.724;2022-12-29T06:20:35;11.10;1.00
19892;DHT22;10108;50.142;8.724;2022-12-29T06:23:03;11.20;1.00
19892;DHT22;10108;50.142;8.724;2022-12-29T06:25:30;11.20;1.00
19892;DHT22;10108;50.142;8.724;2022-12-29T06:27:58;11.30;99.90
19892;DHT22;10108;50.142;8.724;2022-12-29T06:30:24;11.30;3.70
19892;DHT22;10108;50.142;8.724;2022-12-29T06:32:50;11.30;99.90
19892;DHT22;10108;50.142;8.724;2022-12-29T06:35:18;11.20;99.90
19892;DHT22;10108;50.142;8.724;2022-12-29T06:37:47;11.30;99.90
19892;DHT22;10108;50.142;8.724;2022-12-29T06:40:13;11.30;99.90
19892;DHT22;10108;50.142;8.724;2022-12-29T06:43:05;11.30;99.90
19892;DHT22;10108;50.142;8.724;2022-12-29T06:45:44;11.40;99.90
19892;DHT22;10108;50.142;8.724;2022-12-29T06:48:10;11.30;99.90
19892;DHT22;10108;50.142;8.724;2022-12-29T06:50:36;11.40;99.90
19892;DHT22;10108;50.142;8.724;2022-12-29T06:53:03;11.30;99.90
19892;DHT22;10108;50.142;8.724;2022-12-29T06:55:29;11.30;99.90
19892;DHT22;10108;50.142;8.724;2022-12-29T06:57:56;11.40;99.90
19892;DHT22;10108;50.142;8.724;2022-12-29T07:00:24;11.30;99.90
19892;DHT22;10108;50.142;8.724;2022-12-29T07:02:50;11.30;99.90
19892;DHT22;10108;50.142;8.724;2022-12-29T07:05:17;11.30;99.90
19892;DHT22;10108;50.142;8.724;2022-12-29T07:07:43;11.20;99.90
19892;DHT22;10108;50.142;8.724;2022-12-29T07:10:09;11.20;99.90
19892;DHT22;10108;50.142;8.724;2022-12-29T07:12:36;11.20;99.90
19892;DHT22;10108;50.142;8.724;2022-12-29T07:15:02;11.10;99.90
19892;DHT22;10108;50.142;8.724;2022-12-29T07:17:28;11.00;99.90
19892;DHT22;10108;50.142;8.724;2022-12-29T07:19:54;11.00;99.90
19892;DHT22;10108;50.142;8.724;2022-12-29T07:22:20;10.90;99.90
19892;DHT22;10108;50.142;8.724;2022-12-29T07:24:46;10.90;99.90
19892;DHT22;10108;50.142;8.724;2022-12-29T07:27:12;11.00;99.90
19892;DHT22;10108;50.142;8.724;2022-12-29T07:29:39;10.90;99.90
19892;DHT22;10108;50.142;8.724;2022-12-29T07:32:05;10.90;99.90
19892;DHT22;10108;50.142;8.724;2022-12-29T07:34:31;11.00;99.90
19892;DHT22;10108;50.142;8.724;2022-12-29T07:36:57;11.10;99.90
19892;DHT22;10108;50.142;8.724;2022-12-29T07:39:23;11.10;99.90
19892;DHT22;10108;50.142;8.724;2022-12-29T07:41:49;11.10;99.90
19892;DHT22;10108;50.142;8.724;2022-12-29T07:44:18;11.10;99.90
19892;DHT22;10108;50.142;8.724;2022-12-29T07:47:14;11.10;99.90
19892;DHT22;10108;50.142;8.724;2022-12-29T07:49:40;11.10;99.90
19892;DHT22;10108;50.142;8.724;2022-12-29T07:52:06;11.10;99.90
19892;DHT22;10108;50.142;8.724;2022-12-29T07:54:32;11.20;99.90
19892;DHT22;10108;50.142;8.724;2022-12-29T07:56:58;11.20;1.00
19892;DHT22;10108;50.142;8.724;2022-12-29T07:59:26;11.30;92.80
19892;DHT22;10108;50.142;8.724;2022-12-29T08:01:52;11.30;1.00
19892;DHT22;10108;50.142;8.724;2022-12-29T08:04:18;11.30;1.00
19892;DHT22;10108;50.142;8.724;2022-12-29T08:06:44;11.20;1.00
19892;DHT22;10108;50.142;8.724;2022-12-29T08:09:11;11.20;99.90
19892;DHT22;10108;50.142;8.724;2022-12-29T08:11:37;11.30;99.90
19892;DHT22;10108;50.142;8.724;2022-12-29T08:14:04;11.40;1.00
19892;DHT22;10108;50.142;8.724;2022-12-29T08:16:30;11.40;99.90
19892;DHT22;10108;50.142;8.724;2022-12-29T08:18:56;11.40;1.00
19892;DHT22;10108;50.142;8.724;2022-12-29T08:21:22;11.40;99.90
19892;DHT22;10108;50.142;8.724;2022-12-29T08:23:48;11.30;1.00
19892;DHT22;10108;50.142;8.724;2022-12-29T08:26:15;11.40;99.90
19892;DHT22;10108;50.142;8.724;2022-12-29T08:28:41;11.40;99.90
19892;DHT22;10108;50.142;8.724;2022-12-29T08:31:07;11.30;99.90
19892;DHT22;10108;50.142;8.724;2022-12-29T08:33:33;11.30;1.00
19892;DHT22;10108;50.142;8.724;2022-12-29T08:36:01;11.40;99.90
19892;DHT22;10108;50.142;8.724;2022-12-29T08:38:28;11.40;99.90
19892;DHT22;10108;50.142;8.724;2022-12-29T08:40:56;11.40;1.00
19892;DHT22;10108;50.142;8.724;2022-12-29T08:43:22;11.40;99.90
19892;DHT22;10108;50.142;8.724;2022-12-29T08:45:48;11.40;99.90
19892;DHT22;10108;50.142;8.724;2022-12-29T08:48:15;11.40;99.90
19892;DHT22;10108;50.142;8.724;2022-12-29T08:50:44;11.50;1.00
19892;DHT22;10108;50.142;8.724;2022-12-29T08:53:11;11.40;1.00
19892;DHT22;10108;50.142;8.724;2022-12-29T08:55:37;11.40;99.90
19892;DHT22;10108;50.142;8.724;2022-12-29T08:58:03;11.50;99.90
19892;DHT22;10108;50.142;8.724;2022-12-29T09:00:29;11.50;1.00
19892;DHT22;10108;50.142;8.724;2022-12-29T09:02:56;11.40;99.90
19892;DHT22;10108;50.142;8.724;2022-12-29T09:05:22;11.40;99.90
19892;DHT22;10108;50.142;8.724;2022-12-29T09:07:49;11.30;99.90
19892;DHT22;10108;50.142;8.724;2022-12-29T09:10:15;11.20;1.00
19892;DHT22;10108;50.142;8.724;2022-12-29T09:12:41;11.10;18.10
19892;DHT22;10108;50.142;8.724;2022-12-29T09:15:07;11.10;99.90
19892;DHT22;10108;50.142;8.724;2022-12-29T09:17:33;11.00;99.90
19892;DHT22;10108;50.142;8.724;2022-12-29T09:20:10;10.90;99.90
19892;DHT22;10108;50.142;8.724;2022-12-29T09:22:36;10.90;99.90
19892;DHT22;10108;50.142;8.724;2022-12-29T09:25:03;10.80;1.00
19892;DHT22;10108;50.142;8.724;2022-12-29T09:27:29;10.80;1.00
19892;DHT22;10108;50.142;8.724;2022-12-29T09:29:56;10.80;3.40
19892;DHT22;10108;50.142;8.724;2022-12-29T09:32:22;10.70;1.00
19892;DHT22;10108;50.142;8.724;2022-12-29T09:34:48;10.70;1.00
19892;DHT22;10108;50.142;8.724;2022-12-29T09:37:14;10.70;1.00
19892;DHT22;10108;50.142;8.724;2022-12-29T09:39:40;10.70;1.00
19892;DHT22;10108;50.142;8.724;2022-12-29T09:42:19;10.70;99.90
19892;DHT22;10108;50.142;8.724;2022-12-29T09:44:54;10.80;1.00
19892;DHT22;10108;50.142;8.724;2022-12-29T09:47:23;10.80;99.90
19892;DHT22;10108;50.142;8.724;2022-12-29T09:49:56;10.80;1.00
19892;DHT22;10108;50.142;8.724;2022-12-29T09:52:46;10.70;99.90
19892;DHT22;10108;50.142;8.724;2022-12-29T09:55:21;10.80;59.40
19892;DHT22;10108;50.142;8.724;2022-12-29T09:57:56;10.70;99.90
19892;DHT22;10108;50.142;8.724;2022-12-29T10:00:47;10.70;1.00
19892;DHT22;10108;50.142;8.724;2022-12-29T10:03:16;10.70;1.00
19892;DHT22;10108;50.142;8.724;2022-12-29T10:05:56;10.70;1.00
19892;DHT22;10108;50.142;8.724;2022-12-29T10:11:15;10.70;1.00
19892;DHT22;10108;50.142;8.724;2022-12-29T10:16:29;10.70;1.00
19892;DHT22;10108;50.142;8.724;2022-12-29T10:19:00;10.70;75.10
19892;DHT22;10108;50.142;8.724;2022-12-29T10:24:11;10.70;1.00
19892;DHT22;10108;50.142;8.724;2022-12-29T10:26:42;10.60;99.90
19892;DHT22;10108;50.142;8.724;2022-12-29T10:31:45;10.50;1.00
19892;DHT22;10108;50.142;8.724;2022-12-29T10:34:24;10.60;1.00
19892;DHT22;10108;50.142;8.724;2022-12-29T10:36:58;10.50;68.70
19892;DHT22;10108;50.142;8.724;2022-12-29T10:44:37;10.40;1.00
19892;DHT22;10108;50.142;8.724;2022-12-29T10:47:08;10.40;99.60
19892;DHT22;10108;50.142;8.724;2022-12-29T10:49:40;10.30;1.00
19892;DHT22;10108;50.142;8.724;2022-12-29T10:52:08;10.40;93.90
19892;DHT22;10108;50.142;8.724;2022-12-29T10:54:58;10.40;99.90
19892;DHT22;10108;50.142;8.724;2022-12-29T10:57:32;10.50;99.90
19892;DHT22;10108;50.142;8.724;2022-12-29T10:59:59;10.60;99.90
19892;DHT22;10108;50.142;8.724;2022-12-29T11:05:55;10.70;99.90
19892;DHT22;10108;50.142;8.724;2022-12-29T11:08:26;10.80;99.90
19892;DHT22;10108;50.142;8.724;2022-12-29T11:11:07;10.90;99.90
19892;DHT22;10108;50.142;8.724;2022-12-29T11:13:46;10.90;99.90
19892;DHT22;10108;50.142;8.724;2022-12-29T11:16:12;10.90;99.90
19892;DHT22;10108;50.142;8.724;2022-12-29T11:18:40;10.90;99.90
19892;DHT22;10108;50.142;8.724;2022-12-29T11:21:40;11.00;99.90
19892;DHT22;10108;50.142;8.724;2022-12-29T11:24:28;11.10;99.90
19892;DHT22;10108;50.142;8.724;2022-12-29T11:27:08;11.10;99.90
19892;DHT22;10108;50.142;8.724;2022-12-29T11:29:40;11.10;99.90
19892;DHT22;10108;50.142;8.724;2022-12-29T11:34:37;11.10;99.90
19892;DHT22;10108;50.142;8.724;2022-12-29T11:37:16;11.20;99.90
19892;DHT22;10108;50.142;8.724;2022-12-29T11:40:02;11.30;99.90
19892;DHT22;10108;50.142;8.724;2022-12-29T11:42:55;11.40;99.90
19892;DHT22;10108;50.142;8.724;2022-12-29T11:45:22;11.30;99.90
19892;DHT22;10108;50.142;8.724;2022-12-29T11:47:52;11.40;99.90
19892;DHT22;10108;50.142;8.724;2022-12-29T11:50:25;11.40;99.90
19892;DHT22;10108;50.142;8.724;2022-12-29T11:53:06;11.50;99.90
19892;DHT22;10108;50.142;8.724;2022-12-29T11:55:33;11.50;99.90
19892;DHT22;10108;50.142;8.724;2022-12-29T11:58:02;11.50;99.90
19892;DHT22;10108;50.142;8.724;2022-12-29T12:00:32;11.50;99.90
19892;DHT22;10108;50.142;8.724;2022-12-29T12:05:57;11.50;99.90
19892;DHT22;10108;50.142;8.724;2022-12-29T12:08:44;11.50;99.90
19892;DHT22;10108;50.142;8.724;2022-12-29T12:11:18;11.50;99.90
19892;DHT22;10108;50.142;8.724;2022-12-29T12:14:16;11.60;99.90
19892;DHT22;10108;50.142;8.724;2022-12-29T12:17:23;11.60;99.90
19892;DHT22;10108;50.142;8.724;2022-12-29T12:19:59;11.70;99.90
19892;DHT22;10108;50.142;8.724;2022-12-29T12:22:35;11.70;99.90
19892;DHT22;10108;50.142;8.724;2022-12-29T12:27:59;11.80;99.90
19892;DHT22;10108;50.142;8.724;2022-12-29T12:30:36;11.80;99.90
19892;DHT22;10108;50.142;8.724;2022-12-29T12:33:10;11.80;99.90
19892;DHT22;10108;50.142;8.724;2022-12-29T12:38:54;11.80;99.90
19892;DHT22;10108;50.142;8.724;2022-12-29T12:44:38;11.80;99.90
19892;DHT22;10108;50.142;8.724;2022-12-29T12:47:14;11.80;99.90
19892;DHT22;10108;50.142;8.724;2022-12-29T13:01:34;11.60;99.90
19892;DHT22;10108;50.142;8.724;2022-12-29T13:10:27;11.40;99.90
19892;DHT22;10108;50.142;8.724;2022-12-29T13:13:16;11.40;99.90
19892;DHT22;10108;50.142;8.724;2022-12-29T13:18:53;11.40;99.90
19892;DHT22;10108;50.142;8.724;2022-12-29T13:25:00;11.40;99.90
19892;DHT22;10108;50.142;8.724;2022-12-29T13:30:01;11.40;99.90
19892;DHT22;10108;50.142;8.724;2022-12-29T13:32:59;11.50;99.90
19892;DHT22;10108;50.142;8.724;2022-12-29T13:36:03;11.50;99.90
19892;DHT22;10108;50.142;8.724;2022-12-29T13:38:43;11.60;99.90
19892;DHT22;10108;50.142;8.724;2022-12-29T13:41:19;11.60;99.90
19892;DHT22;10108;50.142;8.724;2022-12-29T13:43:47;11.70;99.90
19892;DHT22;10108;50.142;8.724;2022-12-29T13:46:22;11.70;99.90
19892;DHT22;10108;50.142;8.724;2022-12-29T13:49:18;11.70;99.90
19892;DHT22;10108;50.142;8.724;2022-12-29T13:51:53;11.70;99.90
19892;DHT22;10108;50.142;8.724;2022-12-29T14:03:09;11.70;99.90
19892;DHT22;10108;50.142;8.724;2022-12-29T14:05:38;11.70;99.90
19892;DHT22;10108;50.142;8.724;2022-12-29T14:08:06;11.70;99.90
19892;DHT22;10108;50.142;8.724;2022-12-29T14:10:50;11.70;99.90
19892;DHT22;10108;50.142;8.724;2022-12-29T14:13:20;11.70;99.90
19892;DHT22;10108;50.142;8.724;2022-12-29T14:15:55;11.70;99.90
19892;DHT22;10108;50.142;8.724;2022-12-29T14:18:26;11.60;99.90
19892;DHT22;10108;50.142;8.724;2022-12-29T14:21:04;11.60;99.90
19892;DHT22;10108;50.142;8.724;2022-12-29T14:23:45;11.60;99.90
19892;DHT22;10108;50.142;8.724;2022-12-29T14:26:14;11.60;99.90
19892;DHT22;10108;50.142;8.724;2022-12-29T14:28:47;11.50;99.90
19892;DHT22;10108;50.142;8.724;2022-12-29T14:33:40;11.60;99.90
19892;DHT22;10108;50.142;8.724;2022-12-29T14:36:33;11.50;99.90
19892;DHT22;10108;50.142;8.724;2022-12-29T14:39:00;11.40;99.90
19892;DHT22;10108;50.142;8.724;2022-12-29T14:41:33;11.40;99.90
19892;DHT22;10108;50.142;8.724;2022-12-29T14:47:05;11.40;99.90
19892;DHT22;10108;50.142;8.724;2022-12-29T14:49:40;11.40;99.90
19892;DHT22;10108;50.142;8.724;2022-12-29T14:52:21;11.40;99.90
19892;DHT22;10108;50.142;8.724;2022-12-29T14:54:59;11.40;99.90
19892;DHT22;10108;50.142;8.724;2022-12-29T15:00:12;11.40;99.90
19892;DHT22;10108;50.142;8.724;2022-12-29T15:02:46;11.50;99.90
19892;DHT22;10108;50.142;8.724;2022-12-29T15:05:42;11.40;99.90
19892;DHT22;10108;50.142;8.724;2022-12-29T15:08:11;11.40;99.90
19892;DHT22;10108;50.142;8.724;2022-12-29T15:10:48;11.40;99.90
19892;DHT22;10108;50.142;8.724;2022-12-29T15:13:41;11.40;99.90
19892;DHT22;10108;50.142;8.724;2022-12-29T15:16:31;11.40;99.90
19892;DHT22;10108;50.142;8.724;2022-12-29T15:18:58;11.40;99.90
19892;DHT22;10108;50.142;8.724;2022-12-29T15:21:27;11.40;99.90
19892;DHT22;10108;50.142;8.724;2022-12-29T15:23:53;11.30;99.90
19892;DHT22;10108;50.142;8.724;2022-12-29T15:26:20;11.20;99.90
19892;DHT22;10108;50.142;8.724;2022-12-29T15:28:51;11.20;99.90
19892;DHT22;10108;50.142;8.724;2022-12-29T15:31:20;11.20;99.90
19892;DHT22;10108;50.142;8.724;2022-12-29T15:33:49;11.10;99.90
19892;DHT22;10108;50.142;8.724;2022-12-29T15:36:24;11.10;99.90
19892;DHT22;10108;50.142;8.724;2022-12-29T15:38:51;11.10;99.90
19892;DHT22;10108;50.142;8.724;2022-12-29T15:41:47;11.00;99.90
19892;DHT22;10108;50.142;8.724;2022-12-29T15:44:36;11.00;99.90
19892;DHT22;10108;50.142;8.724;2022-12-29T15:49:44;10.90;99.90
19892;DHT22;10108;50.142;8.724;2022-12-29T15:52:18;11.00;99.90
19892;DHT22;10108;50.142;8.724;2022-12-29T15:54:45;11.00;99.90
19892;DHT22;10108;50.142;8.724;2022-12-29T15:57:24;11.00;99.90
19892;DHT22;10108;50.142;8.724;2022-12-29T15:59:51;11.00;99.90
19892;DHT22;10108;50.142;8.724;2022-12-29T16:02:18;11.00;99.90
19892;DHT22;10108;50.142;8.724;2022-12-29T16:04:44;10.90;99.90
19892;DHT22;10108;50.142;8.724;2022-12-29T16:07:26;11.00;99.90
19892;DHT22;10108;50.142;8.724;2022-12-29T16:09:57;11.00;99.90
19892;DHT22;10108;50.142;8.724;2022-12-29T16:12:32;10.90;99.90
19892;DHT22;10108;50.142;8.724;2022-12-29T16:15:01;10.90;99.90
19892;DHT22;10108;50.142;8.724;2022-12-29T16:17:30;10.80;99.90
19892;DHT22;10108;50.142;8.724;2022-12-29T16:20:01;10.90;99.90
19892;DHT22;10108;50.142;8.724;2022-12-29T16:24:57;10.90;99.90
19892;DHT22;10108;50.142;8.724;2022-12-29T16:27:38;10.80;99.90
19892;DHT22;10108;50.142;8.724;2022-12-29T16:30:23;10.80;99.90
19892;DHT22;10108;50.142;8.724;2022-12-29T16:32:53;10.80;99.90
19892;DHT22;10108;50.142;8.724;2022-12-29T16:35:21;10.80;99.90
19892;DHT22;10108;50.142;8.724;2022-12-29T16:38:06;10.70;99.90
19892;DHT22;10108;50.142;8.724;2022-12-29T16:40:33;10.80;99.90
19892;DHT22;10108;50.142;8.724;2022-12-29T16:43:03;10.80;99.90
19892;DHT22;10108;50.142;8.724;2022-12-29T16:48:27;10.80;99.90
19892;DHT22;10108;50.142;8.724;2022-12-29T16:51:12;10.80;99.90
19892;DHT22;10108;50.142;8.724;2022-12-29T16:53:41;10.80;99.90
19892;DHT22;10108;50.142;8.724;2022-12-29T16:56:15;10.80;99.90
19892;DHT22;10108;50.142;8.724;2022-12-29T16:58:47;10.70;99.90
19892;DHT22;10108;50.142;8.724;2022-12-29T17:01:13;10.70;99.90
19892;DHT22;10108;50.142;8.724;2022-12-29T17:03:59;10.70;99.90
19892;DHT22;10108;50.142;8.724;2022-12-29T17:06:26;10.60;99.90
19892;DHT22;10108;50.142;8.724;2022-12-29T17:08:52;10.60;99.90
19892;DHT22;10108;50.142;8.724;2022-12-29T17:14:19;10.50;99.90
19892;DHT22;10108;50.142;8.724;2022-12-29T17:16:47;10.60;99.90
19892;DHT22;10108;50.142;8.724;2022-12-29T17:19:21;10.50;99.90
19892;DHT22;10108;50.142;8.724;2022-12-29T17:21:48;10.50;99.90
19892;DHT22;10108;50.142;8.724;2022-12-29T17:24:19;10.50;99.90
19892;DHT22;10108;50.142;8.724;2022-12-29T17:26:50;10.40;99.90
19892;DHT22;10108;50.142;8.724;2022-12-29T17:29:29;10.40;99.90
19892;DHT22;10108;50.142;8.724;2022-12-29T17:31:55;10.30;99.90
19892;DHT22;10108;50.142;8.724;2022-12-29T17:34:21;10.30;99.90
19892;DHT22;10108;50.142;8.724;2022-12-29T17:36:48;10.30;99.90
19892;DHT22;10108;50.142;8.724;2022-12-29T17:39:14;10.30;99.90
19892;DHT22;10108;50.142;8.724;2022-12-29T17:41:40;10.30;99.90
19892;DHT22;10108;50.142;8.724;2022-12-29T17:44:06;10.30;99.90
19892;DHT22;10108;50.142;8.724;2022-12-29T17:46:33;10.30;99.90
19892;DHT22;10108;50.142;8.724;2022-12-29T17:48:59;10.30;99.90
19892;DHT22;10108;50.142;8.724;2022-12-29T17:51:26;10.30;99.90
19892;DHT22;10108;50.142;8.724;2022-12-29T17:53:52;10.30;99.90
19892;DHT22;10108;50.142;8.724;2022-12-29T17:56:18;10.30;99.90
19892;DHT22;10108;50.142;8.724;2022-12-29T17:58:45;10.30;99.90
19892;DHT22;10108;50.142;8.724;2022-12-29T18:01:12;10.30;99.90
19892;DHT22;10108;50.142;8.724;2022-12-29T18:03:39;10.40;99.90
19892;DHT22;10108;50.142;8.724;2022-12-29T18:06:06;10.40;99.90
19892;DHT22;10108;50.142;8.724;2022-12-29T18:08:37;10.40;99.90
19892;DHT22;10108;50.142;8.724;2022-12-29T18:11:05;10.40;99.90
19892;DHT22;10108;50.142;8.724;2022-12-29T18:13:39;10.40;99.90